sensor_id;sensor_type;location;lat;lon;timestamp;P1;durP1;ratioP1;P2;durP2;ratioP2
29728;SDS011;20055;51.498;11.960;2023-02-15T00:00:08;90.95;;;35.78;;
29728;SDS011;20055;51.498;11.960;2023-02-15T00:02:38;88.18;;;36.88;;
29728;SDS011;20055;51.498;11.960;2023-02-15T00:05:05;89.05;;;37.78;;
29728;SDS011;20055;51.498;11.960;2023-02-15T00:07:32;83.65;;;35.95;;
29728;SDS011;20055;51.498;11.960;2023-02-15T00:09:58;92.05;;;37.45;;
29728;SDS011;20055;51.498;11.960;2023-02-15T00:12:25;84.10;;;35.15;;
29728;SDS011;20055;51.498;11.960;2023-02-15T00:14:51;91.72;;;38.22;;
29728;SDS011;20055;51.498;11.960;2023-02-15T00:17:18;96.03;;;39.00;;
29728;SDS011;20055;51.498;11.960;2023-02-15T00:19:44;96.70;;;38.13;;
29728;SDS011;20055;51.498;11.960;2023-02-15T00:22:11;85.68;;;37.20;;
29728;SDS011;20055;51.498;11.960;2023-02-15T00:24:38;78.72;;;35.30;;
29728;SDS011;20055;51.498;11.960;2023-02-15T00:27:04;83.47;;;36.10;;
29728;SDS011;20055;51.498;11.960;2023-02-15T00:29:31;89.32;;;36.75;;
29728;SDS011;20055;51.498;11.960;2023-02-15T00:31:58;85.82;;;35.30;;
29728;SDS011;20055;51.498;11.960;2023-02-15T00:34:25;87.97;;;34.65;;
29728;SDS011;20055;51.498;11.960;2023-02-15T00:36:52;81.88;;;35.35;;
29728;SDS011;20055;51.498;11.960;2023-02-15T00:39:18;77.25;;;33.15;;
29728;SDS011;20055;51.498;11.960;2023-02-15T00:41:46;79.25;;;33.05;;
29728;SDS011;20055;51.498;11.960;2023-02-15T00:44:12;80.97;;;33.25;;
29728;SDS011;20055;51.498;11.960;2023-02-15T00:46:39;77.18;;;32.28;;
29728;SDS011;20055;51.498;11.960;2023-02-15T00:49:08;70.63;;;30.88;;
29728;SDS011;20055;51.498;11.960;2023-02-15T00:51:35;68.57;;;31.92;;
29728;SDS011;20055;51.498;11.960;2023-02-15T00:54:02;78.13;;;33.65;;
29728;SDS011;20055;51.498;11.960;2023-02-15T00:56:29;79.55;;;32.65;;
29728;SDS011;20055;51.498;11.960;2023-02-15T00:58:55;79.13;;;31.38;;
29728;SDS011;20055;51.498;11.960;2023-02-15T01:01:22;81.63;;;32.47;;
29728;SDS011;20055;51.498;11.960;2023-02-15T01:03:50;83.25;;;32.30;;
29728;SDS011;20055;51.498;11.960;2023-02-15T01:06:17;84.57;;;32.70;;
29728;SDS011;20055;51.498;11.960;2023-02-15T01:08:44;73.50;;;31.35;;
29728;SDS011;20055;51.498;11.960;2023-02-15T01:11:12;76.80;;;32.00;;
29728;SDS011;20055;51.498;11.960;2023-02-15T01:13:40;81.35;;;32.67;;
29728;SDS011;20055;51.498;11.960;2023-02-15T01:16:06;75.68;;;31.90;;
29728;SDS011;20055;51.498;11.960;2023-02-15T01:18:33;85.68;;;33.60;;
29728;SDS011;20055;51.498;11.960;2023-02-15T01:21:06;69.68;;;30.13;;
29728;SDS011;20055;51.498;11.960;2023-02-15T01:23:34;77.53;;;30.77;;
29728;SDS011;20055;51.498;11.960;2023-02-15T01:26:02;76.68;;;30.02;;
29728;SDS011;20055;51.498;11.960;2023-02-15T01:28:28;78.65;;;29.17;;
29728;SDS011;20055;51.498;11.960;2023-02-15T01:30:55;81.47;;;30.45;;
29728;SDS011;20055;51.498;11.960;2023-02-15T01:33:21;76.13;;;30.45;;
29728;SDS011;20055;51.498;11.960;2023-02-15T01:35:48;70.82;;;28.90;;
29728;SDS011;20055;51.498;11.960;2023-02-15T01:38:15;83.47;;;28.88;;
29728;SDS011;20055;51.498;11.960;2023-02-15T01:40:42;68.20;;;27.05;;
29728;SDS011;20055;51.498;11.960;2023-02-15T01:43:09;72.10;;;29.50;;
29728;SDS011;20055;51.498;11.960;2023-02-15T01:45:37;83.47;;;31.27;;
29728;SDS011;20055;51.498;11.960;2023-02-15T01:48:05;83.22;;;29.00;;
29728;SDS011;20055;51.498;11.960;2023-02-15T01:55:30;66.13;;;29.45;;
29728;SDS011;20055;51.498;11.960;2023-02-15T01:57:59;53.55;;;27.00;;
29728;SDS011;20055;51.498;11.960;2023-02-15T02:00:26;73.63;;;28.20;;
29728;SDS011;20055;51.498;11.960;2023-02-15T02:02:53;73.25;;;29.40;;
29728;SDS011;20055;51.498;11.960;2023-02-15T02:05:24;66.63;;;27.52;;
29728;SDS011;20055;51.498;11.960;2023-02-15T02:07:51;91.63;;;30.45;;
29728;SDS011;20055;51.498;11.960;2023-02-15T02:10:20;77.43;;;28.88;;
29728;SDS011;20055;51.498;11.960;2023-02-15T02:15:15;75.70;;;26.63;;
29728;SDS011;20055;51.498;11.960;2023-02-15T02:30:19;109.65;;;30.27;;
29728;SDS011;20055;51.498;11.960;2023-02-15T02:32:58;56.55;;;25.90;;
29728;SDS011;20055;51.498;11.960;2023-02-15T02:44:07;111.78;;;29.20;;
29728;SDS011;20055;51.498;11.960;2023-02-15T02:46:48;100.22;;;28.80;;
29728;SDS011;20055;51.498;11.960;2023-02-15T02:51:43;89.55;;;26.15;;
29728;SDS011;20055;51.498;11.960;2023-02-15T02:54:10;86.43;;;27.95;;
29728;SDS011;20055;51.498;11.960;2023-02-15T02:56:40;67.43;;;27.13;;
29728;SDS011;20055;51.498;11.960;2023-02-15T02:59:27;87.93;;;27.38;;
29728;SDS011;20055;51.498;11.960;2023-02-15T03:02:04;90.43;;;26.85;;
29728;SDS011;20055;51.498;11.960;2023-02-15T03:04:37;68.03;;;25.67;;
29728;SDS011;20055;51.498;11.960;2023-02-15T03:07:07;95.40;;;25.27;;
29728;SDS011;20055;51.498;11.960;2023-02-15T03:09:41;53.50;;;24.55;;
29728;SDS011;20055;51.498;11.960;2023-02-15T03:12:15;83.70;;;26.45;;
29728;SDS011;20055;51.498;11.960;2023-02-15T03:14:47;64.00;;;25.58;;
29728;SDS011;20055;51.498;11.960;2023-02-15T03:19:42;77.45;;;25.38;;
29728;SDS011;20055;51.498;11.960;2023-02-15T03:22:15;82.47;;;23.40;;
29728;SDS011;20055;51.498;11.960;2023-02-15T03:27:15;49.78;;;20.83;;
29728;SDS011;20055;51.498;11.960;2023-02-15T03:29:48;58.10;;;19.50;;
29728;SDS011;20055;51.498;11.960;2023-02-15T03:32:16;68.53;;;21.38;;
29728;SDS011;20055;51.498;11.960;2023-02-15T03:34:43;66.38;;;19.20;;
29728;SDS011;20055;51.498;11.960;2023-02-15T03:37:26;39.33;;;18.45;;
29728;SDS011;20055;51.498;11.960;2023-02-15T03:40:03;39.65;;;17.42;;
29728;SDS011;20055;51.498;11.960;2023-02-15T03:42:55;38.42;;;17.00;;
29728;SDS011;20055;51.498;11.960;2023-02-15T03:45:27;52.33;;;17.80;;
29728;SDS011;20055;51.498;11.960;2023-02-15T03:47:55;42.33;;;17.63;;
29728;SDS011;20055;51.498;11.960;2023-02-15T03:50:26;37.00;;;15.88;;
29728;SDS011;20055;51.498;11.960;2023-02-15T03:53:13;45.30;;;18.20;;
29728;SDS011;20055;51.498;11.960;2023-02-15T03:55:40;42.63;;;16.98;;
29728;SDS011;20055;51.498;11.960;2023-02-15T03:58:07;36.22;;;16.30;;
29728;SDS011;20055;51.498;11.960;2023-02-15T04:00:57;40.15;;;16.65;;
29728;SDS011;20055;51.498;11.960;2023-02-15T04:03:44;31.60;;;15.10;;
29728;SDS011;20055;51.498;11.960;2023-02-15T04:06:11;37.10;;;16.90;;
29728;SDS011;20055;51.498;11.960;2023-02-15T04:08:38;31.38;;;14.85;;
29728;SDS011;20055;51.498;11.960;2023-02-15T04:11:23;29.52;;;13.98;;
29728;SDS011;20055;51.498;11.960;2023-02-15T04:13:50;30.58;;;14.40;;
29728;SDS011;20055;51.498;11.960;2023-02-15T04:16:22;26.20;;;13.57;;
29728;SDS011;20055;51.498;11.960;2023-02-15T04:18:49;26.25;;;14.52;;
29728;SDS011;20055;51.498;11.960;2023-02-15T04:21:34;21.77;;;11.75;;
29728;SDS011;20055;51.498;11.960;2023-02-15T04:24:19;24.70;;;11.82;;
29728;SDS011;20055;51.498;11.960;2023-02-15T04:27:05;27.38;;;13.10;;
29728;SDS011;20055;51.498;11.960;2023-02-15T04:29:32;21.92;;;11.48;;
29728;SDS011;20055;51.498;11.960;2023-02-15T04:31:59;25.40;;;11.75;;
29728;SDS011;20055;51.498;11.960;2023-02-15T04:34:26;26.45;;;12.48;;
29728;SDS011;20055;51.498;11.960;2023-02-15T04:36:52;24.00;;;13.77;;
29728;SDS011;20055;51.498;11.960;2023-02-15T04:39:19;22.90;;;12.20;;
29728;SDS011;20055;51.498;11.960;2023-02-15T04:41:45;23.90;;;11.50;;
29728;SDS011;20055;51.498;11.960;2023-02-15T04:44:13;27.30;;;12.55;;
29728;SDS011;20055;51.498;11.960;2023-02-15T04:46:39;23.05;;;11.80;;
29728;SDS011;20055;51.498;11.960;2023-02-15T04:49:07;21.27;;;11.35;;
29728;SDS011;20055;51.498;11.960;2023-02-15T04:51:34;27.25;;;12.23;;
29728;SDS011;20055;51.498;11.960;2023-02-15T04:54:00;35.85;;;11.63;;
29728;SDS011;20055;51.498;11.960;2023-02-15T04:56:27;31.00;;;11.75;;
29728;SDS011;20055;51.498;11.960;2023-02-15T04:58:55;20.08;;;11.02;;
29728;SDS011;20055;51.498;11.960;2023-02-15T05:01:22;23.30;;;11.13;;
29728;SDS011;20055;51.498;11.960;2023-02-15T05:03:49;23.83;;;11.68;;
29728;SDS011;20055;51.498;11.960;2023-02-15T05:06:16;24.88;;;12.95;;
29728;SDS011;20055;51.498;11.960;2023-02-15T05:08:42;41.85;;;14.55;;
29728;SDS011;20055;51.498;11.960;2023-02-15T05:11:09;33.05;;;14.38;;
29728;SDS011;20055;51.498;11.960;2023-02-15T05:13:36;29.63;;;14.15;;
29728;SDS011;20055;51.498;11.960;2023-02-15T05:16:02;31.70;;;12.70;;
29728;SDS011;20055;51.498;11.960;2023-02-15T05:18:29;32.70;;;12.00;;
29728;SDS011;20055;51.498;11.960;2023-02-15T05:20:55;20.98;;;10.10;;
29728;SDS011;20055;51.498;11.960;2023-02-15T05:23:22;21.02;;;9.63;;
29728;SDS011;20055;51.498;11.960;2023-02-15T05:25:49;20.08;;;8.90;;
29728;SDS011;20055;51.498;11.960;2023-02-15T05:28:35;19.88;;;10.05;;
29728;SDS011;20055;51.498;11.960;2023-02-15T05:33:29;21.35;;;10.48;;
29728;SDS011;20055;51.498;11.960;2023-02-15T05:35:55;37.00;;;9.32;;
29728;SDS011;20055;51.498;11.960;2023-02-15T05:38:22;20.80;;;10.15;;
29728;SDS011;20055;51.498;11.960;2023-02-15T05:40:50;20.85;;;11.32;;
29728;SDS011;20055;51.498;11.960;2023-02-15T05:43:16;20.88;;;10.85;;
29728;SDS011;20055;51.498;11.960;2023-02-15T05:45:50;22.80;;;10.38;;
29728;SDS011;20055;51.498;11.960;2023-02-15T05:48:17;20.67;;;11.02;;
29728;SDS011;20055;51.498;11.960;2023-02-15T05:50:44;20.65;;;10.70;;
29728;SDS011;20055;51.498;11.960;2023-02-15T05:53:11;21.75;;;12.13;;
29728;SDS011;20055;51.498;11.960;2023-02-15T05:55:38;18.77;;;10.15;;
29728;SDS011;20055;51.498;11.960;2023-02-15T05:58:05;24.17;;;10.57;;
29728;SDS011;20055;51.498;11.960;2023-02-15T06:00:33;19.67;;;10.07;;
29728;SDS011;20055;51.498;11.960;2023-02-15T06:03:00;44.15;;;20.33;;
29728;SDS011;20055;51.498;11.960;2023-02-15T06:05:26;19.45;;;10.30;;
29728;SDS011;20055;51.498;11.960;2023-02-15T06:07:53;19.92;;;10.75;;
29728;SDS011;20055;51.498;11.960;2023-02-15T06:10:20;26.98;;;11.00;;
29728;SDS011;20055;51.498;11.960;2023-02-15T06:12:46;18.98;;;10.15;;
29728;SDS011;20055;51.498;11.960;2023-02-15T06:15:13;28.05;;;10.93;;
29728;SDS011;20055;51.498;11.960;2023-02-15T06:17:42;23.75;;;10.30;;
29728;SDS011;20055;51.498;11.960;2023-02-15T06:20:09;32.83;;;11.20;;
29728;SDS011;20055;51.498;11.960;2023-02-15T06:22:36;19.23;;;10.15;;
29728;SDS011;20055;51.498;11.960;2023-02-15T06:25:02;22.48;;;10.85;;
29728;SDS011;20055;51.498;11.960;2023-02-15T06:27:29;18.77;;;10.68;;
29728;SDS011;20055;51.498;11.960;2023-02-15T06:29:56;22.38;;;9.65;;
29728;SDS011;20055;51.498;11.960;2023-02-15T06:32:22;19.65;;;10.45;;
29728;SDS011;20055;51.498;11.960;2023-02-15T06:34:49;15.82;;;9.52;;
29728;SDS011;20055;51.498;11.960;2023-02-15T06:37:15;18.48;;;9.77;;
29728;SDS011;20055;51.498;11.960;2023-02-15T06:39:42;14.68;;;9.05;;
29728;SDS011;20055;51.498;11.960;2023-02-15T06:42:09;21.05;;;9.27;;
29728;SDS011;20055;51.498;11.960;2023-02-15T06:44:36;15.70;;;9.27;;
29728;SDS011;20055;51.498;11.960;2023-02-15T06:47:02;19.08;;;10.77;;
29728;SDS011;20055;51.498;11.960;2023-02-15T06:49:29;17.25;;;9.90;;
29728;SDS011;20055;51.498;11.960;2023-02-15T06:51:56;17.52;;;9.75;;
29728;SDS011;20055;51.498;11.960;2023-02-15T06:54:22;23.85;;;9.00;;
29728;SDS011;20055;51.498;11.960;2023-02-15T06:56:49;22.58;;;9.50;;
29728;SDS011;20055;51.498;11.960;2023-02-15T06:59:15;25.75;;;10.75;;
29728;SDS011;20055;51.498;11.960;2023-02-15T07:01:42;24.63;;;10.50;;
29728;SDS011;20055;51.498;11.960;2023-02-15T07:04:09;26.38;;;11.93;;
29728;SDS011;20055;51.498;11.960;2023-02-15T07:06:35;24.25;;;11.90;;
29728;SDS011;20055;51.498;11.960;2023-02-15T07:09:02;35.63;;;9.75;;
29728;SDS011;20055;51.498;11.960;2023-02-15T07:11:29;18.17;;;10.15;;
29728;SDS011;20055;51.498;11.960;2023-02-15T07:14:15;24.15;;;9.98;;
29728;SDS011;20055;51.498;11.960;2023-02-15T07:16:41;20.92;;;11.02;;
29728;SDS011;20055;51.498;11.960;2023-02-15T07:19:08;21.38;;;11.80;;
29728;SDS011;20055;51.498;11.960;2023-02-15T07:21:35;21.58;;;10.05;;
29728;SDS011;20055;51.498;11.960;2023-02-15T07:24:02;19.50;;;10.77;;
29728;SDS011;20055;51.498;11.960;2023-02-15T07:26:30;23.65;;;10.75;;
29728;SDS011;20055;51.498;11.960;2023-02-15T07:28:57;20.17;;;11.35;;
29728;SDS011;20055;51.498;11.960;2023-02-15T07:31:23;18.90;;;10.60;;
29728;SDS011;20055;51.498;11.960;2023-02-15T07:33:50;27.08;;;11.23;;
29728;SDS011;20055;51.498;11.960;2023-02-15T07:36:16;25.98;;;12.68;;
29728;SDS011;20055;51.498;11.960;2023-02-15T07:38:43;29.10;;;12.18;;
29728;SDS011;20055;51.498;11.960;2023-02-15T07:41:11;22.70;;;11.68;;
29728;SDS011;20055;51.498;11.960;2023-02-15T07:43:39;24.95;;;12.15;;
29728;SDS011;20055;51.498;11.960;2023-02-15T07:46:07;26.65;;;12.80;;
29728;SDS011;20055;51.498;11.960;2023-02-15T07:48:35;25.80;;;13.88;;
29728;SDS011;20055;51.498;11.960;2023-02-15T07:51:02;33.92;;;13.85;;
29728;SDS011;20055;51.498;11.960;2023-02-15T07:53:29;27.42;;;13.63;;
29728;SDS011;20055;51.498;11.960;2023-02-15T07:55:58;25.58;;;12.75;;
29728;SDS011;20055;51.498;11.960;2023-02-15T07:58:25;36.25;;;14.52;;
29728;SDS011;20055;51.498;11.960;2023-02-15T08:01:12;29.38;;;13.85;;
29728;SDS011;20055;51.498;11.960;2023-02-15T08:03:39;22.13;;;12.98;;
29728;SDS011;20055;51.498;11.960;2023-02-15T08:06:06;28.35;;;14.43;;
29728;SDS011;20055;51.498;11.960;2023-02-15T08:08:33;29.98;;;14.25;;
29728;SDS011;20055;51.498;11.960;2023-02-15T08:11:02;23.95;;;14.15;;
29728;SDS011;20055;51.498;11.960;2023-02-15T08:13:48;28.63;;;13.82;;
29728;SDS011;20055;51.498;11.960;2023-02-15T08:18:54;28.70;;;14.10;;
29728;SDS011;20055;51.498;11.960;2023-02-15T08:21:21;28.02;;;13.95;;
29728;SDS011;20055;51.498;11.960;2023-02-15T08:23:48;38.88;;;16.55;;
29728;SDS011;20055;51.498;11.960;2023-02-15T08:26:14;29.15;;;14.93;;
29728;SDS011;20055;51.498;11.960;2023-02-15T08:28:42;32.22;;;15.52;;
29728;SDS011;20055;51.498;11.960;2023-02-15T08:31:10;26.65;;;13.68;;
29728;SDS011;20055;51.498;11.960;2023-02-15T08:33:38;27.65;;;13.63;;
29728;SDS011;20055;51.498;11.960;2023-02-15T08:36:05;29.13;;;14.70;;
29728;SDS011;20055;51.498;11.960;2023-02-15T08:38:32;27.00;;;15.68;;
29728;SDS011;20055;51.498;11.960;2023-02-15T08:41:12;33.00;;;15.23;;
29728;SDS011;20055;51.498;11.960;2023-02-15T08:43:38;31.05;;;15.30;;
29728;SDS011;20055;51.498;11.960;2023-02-15T08:46:05;35.72;;;15.48;;
29728;SDS011;20055;51.498;11.960;2023-02-15T08:48:32;31.83;;;15.23;;
29728;SDS011;20055;51.498;11.960;2023-02-15T08:51:04;32.83;;;16.27;;
29728;SDS011;20055;51.498;11.960;2023-02-15T08:53:31;33.38;;;17.38;;
29728;SDS011;20055;51.498;11.960;2023-02-15T08:55:57;27.63;;;13.40;;
29728;SDS011;20055;51.498;11.960;2023-02-15T08:58:24;32.83;;;15.13;;
29728;SDS011;20055;51.498;11.960;2023-02-15T09:00:51;35.28;;;16.45;;
29728;SDS011;20055;51.498;11.960;2023-02-15T09:03:18;33.92;;;16.08;;
29728;SDS011;20055;51.498;11.960;2023-02-15T09:05:44;32.03;;;15.38;;
29728;SDS011;20055;51.498;11.960;2023-02-15T09:08:11;32.42;;;14.82;;
29728;SDS011;20055;51.498;11.960;2023-02-15T09:10:37;28.38;;;14.43;;
29728;SDS011;20055;51.498;11.960;2023-02-15T09:13:04;27.52;;;13.48;;
29728;SDS011;20055;51.498;11.960;2023-02-15T09:15:31;35.28;;;16.17;;
29728;SDS011;20055;51.498;11.960;2023-02-15T09:17:57;33.00;;;16.35;;
29728;SDS011;20055;51.498;11.960;2023-02-15T09:20:32;30.58;;;15.35;;
29728;SDS011;20055;51.498;11.960;2023-02-15T09:22:58;31.08;;;14.60;;
29728;SDS011;20055;51.498;11.960;2023-02-15T09:25:25;28.20;;;15.63;;
29728;SDS011;20055;51.498;11.960;2023-02-15T09:27:52;27.20;;;14.32;;
29728;SDS011;20055;51.498;11.960;2023-02-15T09:30:19;23.58;;;14.38;;
29728;SDS011;20055;51.498;11.960;2023-02-15T09:32:46;28.27;;;15.38;;
29728;SDS011;20055;51.498;11.960;2023-02-15T09:35:13;27.00;;;15.07;;
29728;SDS011;20055;51.498;11.960;2023-02-15T09:37:40;29.13;;;15.23;;
29728;SDS011;20055;51.498;11.960;2023-02-15T09:40:06;35.05;;;16.58;;
29728;SDS011;20055;51.498;11.960;2023-02-15T09:42:37;28.10;;;14.45;;
29728;SDS011;20055;51.498;11.960;2023-02-15T09:52:51;28.67;;;15.38;;
29728;SDS011;20055;51.498;11.960;2023-02-15T10:00:24;24.63;;;12.80;;
29728;SDS011;20055;51.498;11.960;2023-02-15T10:03:39;29.38;;;15.15;;
29728;SDS011;20055;51.498;11.960;2023-02-15T10:18:24;25.33;;;12.40;;
29728;SDS011;20055;51.498;11.960;2023-02-15T10:26:20;26.77;;;14.48;;
29728;SDS011;20055;51.498;11.960;2023-02-15T10:28:50;29.88;;;13.98;;
29728;SDS011;20055;51.498;11.960;2023-02-15T10:31:22;33.67;;;14.40;;
29728;SDS011;20055;51.498;11.960;2023-02-15T10:34:03;22.08;;;12.88;;
29728;SDS011;20055;51.498;11.960;2023-02-15T10:36:38;25.50;;;13.60;;
29728;SDS011;20055;51.498;11.960;2023-02-15T11:07:55;22.75;;;10.20;;
29728;SDS011;20055;51.498;11.960;2023-02-15T11:12:49;22.63;;;10.27;;
29728;SDS011;20055;51.498;11.960;2023-02-15T11:17:43;21.75;;;10.38;;
29728;SDS011;20055;51.498;11.960;2023-02-15T11:20:16;21.80;;;11.93;;
29728;SDS011;20055;51.498;11.960;2023-02-15T11:22:43;16.65;;;10.18;;
29728;SDS011;20055;51.498;11.960;2023-02-15T11:25:17;25.17;;;11.02;;
29728;SDS011;20055;51.498;11.960;2023-02-15T11:27:46;15.80;;;9.50;;
29728;SDS011;20055;51.498;11.960;2023-02-15T11:30:14;20.00;;;9.27;;
29728;SDS011;20055;51.498;11.960;2023-02-15T11:32:45;17.33;;;9.63;;
29728;SDS011;20055;51.498;11.960;2023-02-15T11:37:57;18.38;;;10.35;;
29728;SDS011;20055;51.498;11.960;2023-02-15T11:43:00;20.67;;;11.77;;
29728;SDS011;20055;51.498;11.960;2023-02-15T11:45:29;18.63;;;9.50;;
29728;SDS011;20055;51.498;11.960;2023-02-15T11:47:58;17.77;;;11.10;;
29728;SDS011;20055;51.498;11.960;2023-02-15T11:50:26;21.80;;;11.57;;
29728;SDS011;20055;51.498;11.960;2023-02-15T11:52:55;17.33;;;9.93;;
29728;SDS011;20055;51.498;11.960;2023-02-15T11:55:23;16.98;;;10.48;;
29728;SDS011;20055;51.498;11.960;2023-02-15T11:58:01;23.08;;;10.15;;
29728;SDS011;20055;51.498;11.960;2023-02-15T12:02:57;23.52;;;9.25;;
29728;SDS011;20055;51.498;11.960;2023-02-15T12:05:24;20.20;;;10.25;;
29728;SDS011;20055;51.498;11.960;2023-02-15T12:08:00;18.15;;;10.02;;
29728;SDS011;20055;51.498;11.960;2023-02-15T12:10:30;14.23;;;9.27;;
29728;SDS011;20055;51.498;11.960;2023-02-15T12:13:11;16.65;;;9.48;;
29728;SDS011;20055;51.498;11.960;2023-02-15T12:15:40;13.93;;;8.63;;
29728;SDS011;20055;51.498;11.960;2023-02-15T12:18:17;16.88;;;8.88;;
29728;SDS011;20055;51.498;11.960;2023-02-15T12:20:45;17.15;;;10.15;;
29728;SDS011;20055;51.498;11.960;2023-02-15T12:23:12;16.25;;;8.75;;
29728;SDS011;20055;51.498;11.960;2023-02-15T12:25:49;18.15;;;9.77;;
29728;SDS011;20055;51.498;11.960;2023-02-15T12:30:56;20.77;;;9.65;;
29728;SDS011;20055;51.498;11.960;2023-02-15T12:33:26;15.93;;;8.82;;
29728;SDS011;20055;51.498;11.960;2023-02-15T12:35:57;14.38;;;9.07;;
29728;SDS011;20055;51.498;11.960;2023-02-15T12:38:26;14.13;;;8.70;;
29728;SDS011;20055;51.498;11.960;2023-02-15T12:40:58;16.38;;;8.80;;
29728;SDS011;20055;51.498;11.960;2023-02-15T12:43:26;16.17;;;9.20;;
29728;SDS011;20055;51.498;11.960;2023-02-15T12:45:53;16.77;;;8.23;;
29728;SDS011;20055;51.498;11.960;2023-02-15T12:48:30;16.10;;;8.13;;
29728;SDS011;20055;51.498;11.960;2023-02-15T12:51:06;13.50;;;8.13;;
29728;SDS011;20055;51.498;11.960;2023-02-15T12:53:34;16.50;;;9.48;;
29728;SDS011;20055;51.498;11.960;2023-02-15T12:56:06;17.38;;;8.75;;
29728;SDS011;20055;51.498;11.960;2023-02-15T12:58:35;14.25;;;8.77;;
29728;SDS011;20055;51.498;11.960;2023-02-15T13:01:03;13.80;;;8.27;;
29728;SDS011;20055;51.498;11.960;2023-02-15T13:03:30;15.60;;;8.00;;
29728;SDS011;20055;51.498;11.960;2023-02-15T13:05:56;14.30;;;8.43;;
29728;SDS011;20055;51.498;11.960;2023-02-15T13:08:28;17.48;;;8.45;;
29728;SDS011;20055;51.498;11.960;2023-02-15T13:11:06;14.40;;;7.95;;
29728;SDS011;20055;51.498;11.960;2023-02-15T13:13:36;21.40;;;9.05;;
29728;SDS011;20055;51.498;11.960;2023-02-15T13:16:09;13.88;;;7.72;;
29728;SDS011;20055;51.498;11.960;2023-02-15T13:18:38;18.65;;;8.57;;
29728;SDS011;20055;51.498;11.960;2023-02-15T13:21:12;12.70;;;7.68;;
29728;SDS011;20055;51.498;11.960;2023-02-15T13:23:40;13.70;;;7.20;;
29728;SDS011;20055;51.498;11.960;2023-02-15T13:26:11;17.83;;;7.97;;
29728;SDS011;20055;51.498;11.960;2023-02-15T13:28:46;14.82;;;7.30;;
29728;SDS011;20055;51.498;11.960;2023-02-15T13:31:15;16.33;;;7.78;;
29728;SDS011;20055;51.498;11.960;2023-02-15T13:33:42;12.05;;;6.63;;
29728;SDS011;20055;51.498;11.960;2023-02-15T13:36:22;11.18;;;6.60;;
29728;SDS011;20055;51.498;11.960;2023-02-15T13:38:55;10.45;;;6.68;;
29728;SDS011;20055;51.498;11.960;2023-02-15T13:41:30;13.45;;;5.65;;
29728;SDS011;20055;51.498;11.960;2023-02-15T13:46:44;11.23;;;6.07;;
29728;SDS011;20055;51.498;11.960;2023-02-15T13:49:17;11.10;;;6.43;;
29728;SDS011;20055;51.498;11.960;2023-02-15T13:59:26;10.00;;;5.50;;
29728;SDS011;20055;51.498;11.960;2023-02-15T14:01:58;11.55;;;6.00;;
29728;SDS011;20055;51.498;11.960;2023-02-15T14:07:16;9.82;;;5.63;;
29728;SDS011;20055;51.498;11.960;2023-02-15T14:20:36;17.05;;;7.70;;
29728;SDS011;20055;51.498;11.960;2023-02-15T14:22:57;11.77;;;6.95;;
29728;SDS011;20055;51.498;11.960;2023-02-15T14:25:32;12.88;;;7.32;;
29728;SDS011;20055;51.498;11.960;2023-02-15T14:30:34;12.10;;;6.35;;
29728;SDS011;20055;51.498;11.960;2023-02-15T14:35:29;12.65;;;6.28;;
29728;SDS011;20055;51.498;11.960;2023-02-15T14:40:42;13.82;;;6.25;;
29728;SDS011;20055;51.498;11.960;2023-02-15T14:43:40;7.65;;;5.30;;
29728;SDS011;20055;51.498;11.960;2023-02-15T14:49:04;8.57;;;5.55;;
29728;SDS011;20055;51.498;11.960;2023-02-15T14:54:09;10.05;;;5.50;;
29728;SDS011;20055;51.498;11.960;2023-02-15T14:56:36;13.30;;;5.10;;
29728;SDS011;20055;51.498;11.960;2023-02-15T14:59:12;8.25;;;5.72;;
29728;SDS011;20055;51.498;11.960;2023-02-15T15:01:40;14.70;;;5.82;;
29728;SDS011;20055;51.498;11.960;2023-02-15T15:04:29;11.27;;;5.63;;
29728;SDS011;20055;51.498;11.960;2023-02-15T15:07:01;8.15;;;5.18;;
29728;SDS011;20055;51.498;11.960;2023-02-15T15:09:29;9.10;;;4.55;;
29728;SDS011;20055;51.498;11.960;2023-02-15T15:12:39;11.68;;;5.80;;
29728;SDS011;20055;51.498;11.960;2023-02-15T15:14:46;10.32;;;5.50;;
29728;SDS011;20055;51.498;11.960;2023-02-15T15:18:00;9.85;;;5.70;;
29728;SDS011;20055;51.498;11.960;2023-02-15T15:22:48;17.17;;;5.80;;
29728;SDS011;20055;51.498;11.960;2023-02-15T15:32:43;8.52;;;5.25;;
29728;SDS011;20055;51.498;11.960;2023-02-15T15:37:50;9.27;;;5.22;;
29728;SDS011;20055;51.498;11.960;2023-02-15T15:48:28;9.52;;;5.53;;
29728;SDS011;20055;51.498;11.960;2023-02-15T15:51:03;16.98;;;6.28;;
29728;SDS011;20055;51.498;11.960;2023-02-15T15:53:32;14.23;;;5.40;;
29728;SDS011;20055;51.498;11.960;2023-02-15T15:56:02;10.00;;;5.53;;
29728;SDS011;20055;51.498;11.960;2023-02-15T15:58:29;10.02;;;5.60;;
29728;SDS011;20055;51.498;11.960;2023-02-15T16:01:02;9.55;;;5.43;;
29728;SDS011;20055;51.498;11.960;2023-02-15T16:03:30;11.77;;;4.53;;
29728;SDS011;20055;51.498;11.960;2023-02-15T16:05:57;18.00;;;5.22;;
29728;SDS011;20055;51.498;11.960;2023-02-15T16:10:45;22.25;;;5.85;;
29728;SDS011;20055;51.498;11.960;2023-02-15T16:13:11;11.25;;;5.13;;
29728;SDS011;20055;51.498;11.960;2023-02-15T16:25:17;11.00;;;5.85;;
29728;SDS011;20055;51.498;11.960;2023-02-15T16:27:49;10.57;;;6.03;;
29728;SDS011;20055;51.498;11.960;2023-02-15T16:32:46;9.88;;;5.90;;
29728;SDS011;20055;51.498;11.960;2023-02-15T16:35:17;11.68;;;6.75;;
29728;SDS011;20055;51.498;11.960;2023-02-15T16:40:33;10.80;;;6.22;;
29728;SDS011;20055;51.498;11.960;2023-02-15T16:43:01;11.93;;;6.37;;
29728;SDS011;20055;51.498;11.960;2023-02-15T16:45:29;13.02;;;6.57;;
29728;SDS011;20055;51.498;11.960;2023-02-15T16:47:57;10.18;;;6.15;;
29728;SDS011;20055;51.498;11.960;2023-02-15T16:50:25;18.25;;;7.32;;
29728;SDS011;20055;51.498;11.960;2023-02-15T16:52:52;16.00;;;8.65;;
29728;SDS011;20055;51.498;11.960;2023-02-15T16:55:30;15.25;;;7.63;;
29728;SDS011;20055;51.498;11.960;2023-02-15T16:58:01;17.77;;;8.07;;
29728;SDS011;20055;51.498;11.960;2023-02-15T17:00:31;15.15;;;7.53;;
29728;SDS011;20055;51.498;11.960;2023-02-15T17:05:32;16.67;;;9.02;;
29728;SDS011;20055;51.498;11.960;2023-02-15T17:13:03;24.65;;;8.85;;
29728;SDS011;20055;51.498;11.960;2023-02-15T17:15:31;14.77;;;8.05;;
29728;SDS011;20055;51.498;11.960;2023-02-15T17:18:11;14.88;;;8.65;;
29728;SDS011;20055;51.498;11.960;2023-02-15T17:20:38;14.57;;;8.68;;
29728;SDS011;20055;51.498;11.960;2023-02-15T17:23:17;14.57;;;9.40;;
29728;SDS011;20055;51.498;11.960;2023-02-15T17:25:47;18.77;;;9.63;;
29728;SDS011;20055;51.498;11.960;2023-02-15T17:28:17;18.85;;;9.43;;
29728;SDS011;20055;51.498;11.960;2023-02-15T17:30:45;16.35;;;8.48;;
29728;SDS011;20055;51.498;11.960;2023-02-15T17:33:19;19.63;;;10.00;;
29728;SDS011;20055;51.498;11.960;2023-02-15T17:36:01;19.08;;;9.27;;
29728;SDS011;20055;51.498;11.960;2023-02-15T17:38:28;18.38;;;9.60;;
29728;SDS011;20055;51.498;11.960;2023-02-15T17:40:54;17.08;;;9.13;;
29728;SDS011;20055;51.498;11.960;2023-02-15T17:43:22;17.63;;;9.45;;
29728;SDS011;20055;51.498;11.960;2023-02-15T17:45:49;16.13;;;8.88;;